Albury
Weather
Information

and Archive.
Albury Local Internet Skycam This service provided and funded by Albury Local Internet

Help keep our weatherstation running:

Lavington Weatherstation live data - Conditions of Use

Last updated on 24-Nov-2014 at 17:18:07
Temperature
  Currently 24.0 Degrees C
  Apparent Temperature ("Wind Chill") is 27.2 degrees C
  Today has ranged from 19.1 at 12:45 to 26.5 at 00:00
  Yesterday ranged from 17.2 at 06:15 to 35.9 at 16:20
Wind
  Now:    6.5kmh, gusting to   9.4kmh from 329 degrees (NNW)
  Hour:   6.8kmh, gusting to  14.0kmh
Rainfall
   6.4mm Midnight to Midnight (ie, yesterday)
   3.6mm Since Midnight (ie, so far today)
   0.0mm 9am yesterday to 9am today
  44.2mm Total this month
Misc items
  Relative humidity is 86%
  Dewpoint is 21.5 deg C
  Estimated Cloudbase is 1000 feet
  Barometric Pressure is 1008.0 mbar
  Solar Insolation: 186 W/m^2
  There should be 345 W/m^2 available to a tracking array
  The sun is 32.5 degrees above the horizon bearing 267.1 degrees.
Top Solar flares in the last 24 hours <--- NEW

Last 24 hours Temperature Graph (click graph for history)
temperature

Last 24 hours Dynamic Wind display (click image for 4-hour image):
Wind Rose

Current Yarrawonga Weather Radar and Infrared Satellite Images from the BOM.

Hourly summaries in the tables below are cumulative and peak values
for the preceding hour, and instantaneous values at the hour.
So far today, 24-Nov-2014
Time   Barom.  Wind + Gust    Direction   RH   Rain    Temp.  Minimum    Maximum
01:00  1013.0   7.6  16.2kmh  223 ( SW)   46%  0.0mm   24.5  24.5@00:52 26.5@00:00
02:00  1014.0   6.4  21.6kmh  250 (WSW)   40%  0.0mm   24.8  24.3@01:57 25.0@01:28
03:00  1012.0  10.0  16.9kmh   46 ( NE)   50%  0.0mm   22.7  21.7@02:14 24.8@02:00
04:00  1011.0  17.6  24.5kmh   36 ( NE)   54%  0.0mm   22.4  21.3@03:25 22.8@03:03
05:00  1011.0  13.8  19.4kmh   46 ( NE)   58%  0.0mm   21.7  21.8@04:20 22.4@04:00
06:00  1012.0  13.6  23.0kmh   14 (NNE)   57%  0.0mm   21.7  21.5@05:07 22.3@05:40
07:00  1012.0  13.4  31.3kmh   16 (NNE)   52%  0.0mm   23.5  21.6@06:05 23.5@06:55
08:00  1013.0  16.3  29.2kmh  340 (NNW)   55%  0.0mm   24.6  23.5@07:00 24.5@07:54
09:00  1013.0  16.9  32.4kmh  323 ( NW)   58%  0.0mm   24.6  24.1@08:25 24.6@08:00
10:00  1013.0  19.0  42.8kmh  329 (NNW)   55%  0.0mm   25.3  24.6@09:00 25.4@09:25
11:00  1013.0  20.8  38.9kmh  307 ( NW)   83%  0.2mm   22.3  22.3@10:55 25.3@10:00
12:00  1013.0  17.4  33.1kmh  321 ( NW)  100%  1.6mm   19.7  19.7@11:56 22.3@11:00
13:00  1011.0  17.6  32.4kmh  324 ( NW)  100%  1.2mm   19.1  19.1@12:45 19.9@12:15
14:00  1010.0  17.4  32.0kmh    7 ( N )  100%  0.6mm   19.7  19.1@13:00 19.5@13:56
15:00  1010.0  10.9  20.2kmh   28 (NNE)  100%  0.0mm   22.8  19.7@14:00 22.7@14:55
16:00  1009.0  13.8  21.6kmh   46 ( NE)   90%  0.0mm   24.0  22.8@15:00 24.0@15:25
17:00  1008.0  13.2  22.3kmh   28 (NNE)   81%  0.0mm   24.6  23.9@16:04 24.9@16:20
17:18  1008.0   6.8  14.0kmh   29 (NNE)   86%  0.0mm   24.0  24.0@17:15 24.6@17:00


Summary for yesterday, 23-Nov-2014
Time   Barom.  Wind + Gust    Direction   RH   Rain    Temp.  Minimum    Maximum
01:00  1012.0   7.8  14.0kmh    1 ( N )   98%  5.8mm   18.3  18.1@00:58 23.1@00:00
02:00  1011.0   6.8  12.6kmh  108 (ESE)   80%  0.0mm   20.1  18.3@01:00 20.5@01:53
03:00  1011.0   5.5  11.9kmh  101 ( E )   85%  0.0mm   19.8  19.5@02:35 20.2@02:03
04:00  1013.0   5.8  20.9kmh   54 ( NE)  100%  0.4mm   17.8  17.9@03:59 19.8@03:00
05:00  1011.0   8.8  19.4kmh   43 ( NE)  100%  0.2mm   17.5  17.4@04:51 19.2@04:16
06:00  1010.0   8.5  15.5kmh  140 ( SE)  100%  0.0mm   17.6  17.5@05:00 18.2@05:18
07:00  1011.0   4.5  14.0kmh  139 ( SE)   92%  0.0mm   19.1  17.2@06:15 19.0@06:58
08:00  1012.0   9.4  18.0kmh  126 ( SE)   83%  0.0mm   20.9  18.7@07:20 20.8@07:58
09:00  1012.0   9.0  16.2kmh  138 ( SE)   69%  0.0mm   23.2  20.9@08:00 23.2@08:59
10:00  1012.0   9.6  17.6kmh  161 (SSE)   57%  0.0mm   25.7  23.2@09:00 25.6@09:58
11:00  1012.0   9.2  14.8kmh  157 (SSE)   43%  0.0mm   27.8  25.6@10:01 27.8@10:57
12:00  1011.0   7.9  18.7kmh  160 (SSE)   35%  0.0mm   29.3  27.8@11:00 30.1@11:52
13:00  1011.0   6.2  11.9kmh  155 (SSE)   34%  0.0mm   31.1  29.3@12:00 31.6@12:49
14:00  1010.0   7.0  17.6kmh  317 ( NW)   31%  0.0mm   33.6  31.1@13:00 34.5@13:31
15:00  1010.0   9.8  20.2kmh  295 (WNW)   24%  0.0mm   34.8  33.4@14:22 35.1@14:55
16:00  1010.0  14.8  29.9kmh  266 ( W )   22%  0.0mm   34.9  34.6@15:02 35.1@15:24
17:00  1010.0  14.9  32.0kmh  214 ( SW)   22%  0.0mm   34.2  34.0@16:55 35.9@16:20
18:00  1010.0  17.2  30.6kmh  214 ( SW)   26%  0.0mm   31.7  31.8@17:49 34.2@17:00
19:00  1011.0  14.4  28.4kmh  232 ( SW)   30%  0.0mm   31.1  31.1@18:49 32.2@18:38
20:00  1011.0  11.4  21.6kmh  254 (WSW)   34%  0.0mm   28.9  29.0@19:54 31.1@19:00
21:00  1013.0  11.9  24.8kmh  227 ( SW)   34%  0.0mm   28.3  28.3@20:54 29.0@20:03
22:00  1013.0  10.0  18.0kmh  212 (SSW)   36%  0.0mm   26.9  26.7@21:55 28.3@21:00
23:00  1012.0   7.6  15.5kmh  133 ( SE)   37%  0.0mm   26.6  26.2@22:40 27.0@22:09
00:00  1013.0   5.1  15.5kmh   43 ( NE)   36%  0.0mm   26.5  25.1@23:44 26.7@23:08